Time,TemperatureF,DewpointF,PressureIn,WindDirection,WindDirectionDegrees,WindSpeedMPH,WindSpeedGustMPH,Humidity,HourlyPrecipIn,Conditions,Clouds,dailyrainin,SoftwareType,DateUTC
2013-01-21 00:00:00,23.9,16.5,30.25,NW,305,5.0,20.0,73,0.00,,,0.00,Wunderground v.1.15,2013-01-21 05:00:00,
2013-01-21 00:02:00,23.9,16.5,30.24,WNW,297,5.0,20.0,73,0.00,,,0.00,Wunderground v.1.15,2013-01-21 05:02:00,
2013-01-21 00:03:00,23.9,16.5,30.24,WNW,292,4.0,20.0,73,0.00,,,0.00,Wunderground v.1.15,2013-01-21 05:03:00,
2013-01-21 00:08:00,23.9,15.9,30.24,WNW,289,4.0,20.0,71,0.00,,,0.00,Wunderground v.1.15,2013-01-21 05:08:00,
2013-01-21 00:09:00,23.8,15.8,30.24,WNW,294,4.0,20.0,71,0.00,,,0.00,Wunderground v.1.15,2013-01-21 05:09:00,
2013-01-21 00:15:00,23.8,15.4,30.24,NW,316,5.0,20.0,70,0.00,,,0.00,Wunderground v.1.15,2013-01-21 05:15:00,
2013-01-21 00:20:00,23.7,15.7,30.24,WNW,293,6.0,20.0,71,0.00,,,0.00,Wunderground v.1.15,2013-01-21 05:20:00,
2013-01-21 00:26:00,23.6,15.2,30.24,NW,318,7.0,20.0,70,0.00,,,0.00,Wunderground v.1.15,2013-01-21 05:26:00,
2013-01-21 00:33:00,23.5,15.5,30.24,NW,304,7.0,7.0,71,0.00,,,0.00,Wunderground v.1.15,2013-01-21 05:33:00,
2013-01-21 00:38:00,23.6,15.9,30.24,NW,322,6.0,20.0,72,0.00,,,0.00,Wunderground v.1.15,2013-01-21 05:38:00,
2013-01-21 00:44:00,23.5,15.8,30.23,NW,308,6.0,20.0,72,0.00,,,0.00,Wunderground v.1.15,2013-01-21 05:44:00,
2013-01-21 00:49:00,23.5,15.8,30.23,NW,319,6.0,20.0,72,0.00,,,0.00,Wunderground v.1.15,2013-01-21 05:49:00,
2013-01-21 00:55:00,23.5,15.8,30.23,NW,316,5.0,20.0,72,0.00,,,0.00,Wunderground v.1.15,2013-01-21 05:55:00,
2013-01-21 01:00:00,23.5,15.8,30.23,NNW,340,4.0,20.0,72,0.00,,,0.00,Wunderground v.1.15,2013-01-21 06:00:00,
2013-01-21 01:06:00,23.5,16.1,30.22,NW,313,4.0,20.0,73,0.00,,,0.00,Wunderground v.1.15,2013-01-21 06:06:00,
2013-01-21 01:11:00,23.5,16.4,30.22,WNW,292,5.0,20.0,74,0.00,,,0.00,Wunderground v.1.15,2013-01-21 06:11:00,
2013-01-21 01:18:00,23.5,16.4,30.22,NW,325,6.0,20.0,74,0.00,,,0.00,Wunderground v.1.15,2013-01-21 06:18:00,
2013-01-21 01:23:00,23.6,16.8,30.22,WNW,299,5.0,20.0,75,0.00,,,0.00,Wunderground v.1.15,2013-01-21 06:23:00,
2013-01-21 01:29:00,23.5,16.7,30.22,NW,308,5.0,20.0,75,0.00,,,0.00,Wunderground v.1.15,2013-01-21 06:29:00,
2013-01-21 01:34:00,23.4,16.9,30.21,NW,314,5.0,20.0,76,0.00,,,0.00,Wunderground v.1.15,2013-01-21 06:34:00,
2013-01-21 01:40:00,23.4,16.9,30.21,NW,309,4.0,20.0,76,0.00,,,0.00,Wunderground v.1.15,2013-01-21 06:40:00,
2013-01-21 01:45:00,23.4,16.9,30.21,NW,314,3.0,20.0,76,0.00,,,0.00,Wunderground v.1.15,2013-01-21 06:45:00,
2013-01-21 01:50:00,23.4,16.9,30.21,NW,308,4.0,20.0,76,0.00,,,0.00,Wunderground v.1.15,2013-01-21 06:50:00,
2013-01-21 01:56:00,23.4,17.3,30.21,West,277,4.0,20.0,77,0.00,,,0.00,Wunderground v.1.15,2013-01-21 06:56:00,
2013-01-21 02:02:00,23.5,17.6,30.21,WNW,294,3.0,20.0,78,0.00,,,0.00,Wunderground v.1.15,2013-01-21 07:02:00,
2013-01-21 02:07:00,23.5,17.6,30.21,WNW,300,4.0,20.0,78,0.00,,,0.00,Wunderground v.1.15,2013-01-21 07:07:00,
2013-01-21 02:13:00,23.5,17.6,30.22,WNW,302,5.0,20.0,78,0.00,,,0.00,Wunderground v.1.15,2013-01-21 07:13:00,
2013-01-21 02:18:00,23.5,17.6,30.22,NW,310,6.0,20.0,78,0.00,,,0.00,Wunderground v.1.15,2013-01-21 07:18:00,
2013-01-21 02:24:00,23.5,17.9,30.22,WNW,295,6.0,20.0,79,0.00,,,0.00,Wunderground v.1.15,2013-01-21 07:24:00,
2013-01-21 02:30:00,23.5,17.6,30.22,SW,227,5.0,20.0,78,0.00,,,0.00,Wunderground v.1.15,2013-01-21 07:30:00,
2013-01-21 02:35:00,23.4,16.9,30.22,WNW,283,6.0,20.0,76,0.00,,,0.00,Wunderground v.1.15,2013-01-21 07:35:00,
2013-01-21 02:40:00,23.3,16.9,30.22,WNW,291,6.0,20.0,76,0.00,,,0.00,Wunderground v.1.15,2013-01-21 07:40:00,
2013-01-21 02:46:00,23.3,17.2,30.22,WNW,297,5.0,20.0,77,0.00,,,0.00,Wunderground v.1.15,2013-01-21 07:46:00,
2013-01-21 02:52:00,23.2,17.1,30.21,WNW,291,5.0,5.0,77,0.00,,,0.00,Wunderground v.1.15,2013-01-21 07:52:00,
2013-01-21 02:58:00,23.1,17.0,30.22,WNW,295,6.0,20.0,77,0.00,,,0.00,Wunderground v.1.15,2013-01-21 07:58:00,
2013-01-21 03:04:00,23.1,17.3,30.21,WNW,287,7.0,20.0,78,0.00,,,0.00,Wunderground v.1.15,2013-01-21 08:04:00,
2013-01-21 03:10:00,23.1,17.3,30.22,WNW,285,6.0,20.0,78,0.00,,,0.00,Wunderground v.1.15,2013-01-21 08:10:00,
2013-01-21 03:16:00,23.0,16.9,30.22,West,278,7.0,20.0,77,0.00,,,0.00,Wunderground v.1.15,2013-01-21 08:16:00,
2013-01-21 03:21:00,23.0,16.9,30.22,WNW,294,8.0,20.0,77,0.00,,,0.00,Wunderground v.1.15,2013-01-21 08:21:00,
2013-01-21 03:26:00,23.1,17.0,30.22,WNW,297,8.0,20.0,77,0.00,,,0.00,Wunderground v.1.15,2013-01-21 08:26:00,
2013-01-21 03:32:00,23.1,17.0,30.22,West,276,9.0,9.0,77,0.00,,,0.00,Wunderground v.1.15,2013-01-21 08:32:00,
2013-01-21 03:38:00,23.0,16.9,30.22,WNW,289,9.0,20.0,77,0.00,,,0.00,Wunderground v.1.15,2013-01-21 08:38:00,
2013-01-21 03:42:00,23.0,16.9,30.22,WNW,285,8.0,8.0,77,0.00,,,0.00,Wunderground v.1.15,2013-01-21 08:42:00,
2013-01-21 03:48:00,23.0,16.9,30.22,WNW,303,8.0,20.0,77,0.00,,,0.00,Wunderground v.1.15,2013-01-21 08:48:00,
2013-01-21 03:53:00,22.9,16.8,30.21,WNW,288,8.0,20.0,77,0.00,,,0.00,Wunderground v.1.15,2013-01-21 08:53:00,
2013-01-21 03:59:00,22.9,16.8,30.21,WNW,288,7.0,20.0,77,0.00,,,0.00,Wunderground v.1.15,2013-01-21 08:59:00,
2013-01-21 04:05:00,22.9,16.8,30.21,NW,310,6.0,20.0,77,0.00,,,0.00,Wunderground v.1.15,2013-01-21 09:05:00,
2013-01-21 04:10:00,22.9,16.8,30.21,WNW,289,7.0,20.0,77,0.00,,,0.00,Wunderground v.1.15,2013-01-21 09:10:00,
2013-01-21 04:16:00,22.9,17.1,30.21,WNW,302,6.0,20.0,78,0.00,,,0.00,Wunderground v.1.15,2013-01-21 09:16:00,
2013-01-21 04:22:00,22.9,17.1,30.21,NW,313,6.0,20.0,78,0.00,,,0.00,Wunderground v.1.15,2013-01-21 09:22:00,
2013-01-21 04:28:00,22.7,16.6,30.21,WNW,297,7.0,20.0,77,0.00,,,0.00,Wunderground v.1.15,2013-01-21 09:28:00,
2013-01-21 04:34:00,22.6,16.5,30.21,WNW,290,8.0,13.0,77,0.00,,,0.00,Wunderground v.1.15,2013-01-21 09:34:00,
2013-01-21 04:39:00,22.4,16.0,30.21,NW,304,8.0,20.0,76,0.00,,,0.00,Wunderground v.1.15,2013-01-21 09:39:00,
2013-01-21 04:44:00,22.4,16.3,30.20,WNW,294,8.0,20.0,77,0.00,,,0.00,Wunderground v.1.15,2013-01-21 09:44:00,
2013-01-21 04:49:00,22.3,15.9,30.21,WNW,302,9.0,20.0,76,0.00,,,0.00,Wunderground v.1.15,2013-01-21 09:49:00,
2013-01-21 04:54:00,22.2,15.5,30.21,NW,317,11.0,20.0,75,0.00,,,0.00,Wunderground v.1.15,2013-01-21 09:54:00,
2013-01-21 05:00:00,22.3,15.9,30.21,NW,322,10.0,20.0,76,0.00,,,0.00,Wunderground v.1.15,2013-01-21 10:00:00,
2013-01-21 05:06:00,22.1,15.7,30.21,NW,326,9.0,20.0,76,0.00,,,0.00,Wunderground v.1.15,2013-01-21 10:06:00,
2013-01-21 05:12:00,22.0,15.6,30.21,WNW,300,10.0,20.0,76,0.00,,,0.00,Wunderground v.1.15,2013-01-21 10:12:00,
2013-01-21 05:18:00,21.9,15.5,30.21,WNW,292,10.0,20.0,76,0.00,,,0.00,Wunderground v.1.15,2013-01-21 10:18:00,
2013-01-21 05:24:00,21.9,15.5,30.21,WNW,298,11.0,20.0,76,0.00,,,0.00,Wunderground v.1.15,2013-01-21 10:24:00,
2013-01-21 05:30:00,21.8,15.7,30.21,WNW,300,11.0,20.0,77,0.00,,,0.00,Wunderground v.1.15,2013-01-21 10:30:00,
2013-01-21 05:36:00,21.7,15.6,30.21,NNW,337,11.0,20.0,77,0.00,,,0.00,Wunderground v.1.15,2013-01-21 10:36:00,
2013-01-21 05:42:00,21.7,15.9,30.21,WNW,300,9.0,20.0,78,0.00,,,0.00,Wunderground v.1.15,2013-01-21 10:42:00,
2013-01-21 05:47:00,21.6,15.8,30.21,WNW,295,9.0,20.0,78,0.00,,,0.00,Wunderground v.1.15,2013-01-21 10:47:00,
2013-01-21 05:53:00,21.5,16.0,30.21,WNW,299,8.0,8.0,79,0.00,,,0.00,Wunderground v.1.15,2013-01-21 10:53:00,
2013-01-21 05:59:00,21.5,16.0,30.20,WNW,297,8.0,20.0,79,0.00,,,0.00,Wunderground v.1.15,2013-01-21 10:59:00,
2013-01-21 06:04:00,21.3,15.5,30.20,SSW,204,7.0,20.0,78,0.00,,,0.00,Wunderground v.1.15,2013-01-21 11:04:00,
2013-01-21 06:09:00,21.2,15.4,30.21,WNW,285,7.0,20.0,78,0.00,,,0.00,Wunderground v.1.15,2013-01-21 11:09:00,
2013-01-21 06:15:00,21.0,15.2,30.21,WNW,293,8.0,10.0,78,0.00,,,0.00,Wunderground v.1.15,2013-01-21 11:15:00,
2013-01-21 06:20:00,20.9,14.8,30.21,WNW,301,9.0,13.0,77,0.00,,,0.00,Wunderground v.1.15,2013-01-21 11:20:00,
2013-01-21 06:25:00,20.9,14.8,30.21,NW,305,9.0,13.0,77,0.00,,,0.00,Wunderground v.1.15,2013-01-21 11:25:00,
2013-01-21 06:30:00,20.7,14.3,30.21,WNW,297,10.0,13.0,76,0.00,,,0.00,Wunderground v.1.15,2013-01-21 11:30:00,
2013-01-21 06:36:00,20.6,13.9,30.22,WNW,298,10.0,16.0,75,0.00,,,0.00,Wunderground v.1.15,2013-01-21 11:36:00,
2013-01-21 06:42:00,20.3,13.6,30.21,NW,308,13.0,16.0,75,0.00,,,0.00,Wunderground v.1.15,2013-01-21 11:42:00,
2013-01-21 06:48:00,20.2,13.5,30.21,WNW,303,13.0,15.0,75,0.00,,,0.00,Wunderground v.1.15,2013-01-21 11:48:00,
2013-01-21 06:53:00,20.1,13.7,30.22,NW,308,11.0,12.0,76,0.00,,,0.00,Wunderground v.1.15,2013-01-21 11:53:00,
2013-01-21 06:59:00,20.1,14.0,30.22,NW,310,9.0,12.0,77,0.00,,,0.00,Wunderground v.1.15,2013-01-21 11:59:00,
2013-01-21 07:05:00,20.1,13.7,30.22,NW,311,9.0,13.0,76,0.00,,,0.00,Wunderground v.1.15,2013-01-21 12:05:00,
2013-01-21 07:11:00,20.1,14.0,30.22,WNW,298,10.0,14.0,77,0.00,,,0.00,Wunderground v.1.15,2013-01-21 12:11:00,
2013-01-21 07:17:00,20.2,14.1,30.22,NNW,337,11.0,13.0,77,0.00,,,0.00,Wunderground v.1.15,2013-01-21 12:17:00,
2013-01-21 07:23:00,20.2,13.8,30.23,WNW,294,11.0,16.0,76,0.00,,,0.00,Wunderground v.1.15,2013-01-21 12:23:00,
2013-01-21 07:28:00,19.9,13.6,30.23,WNW,295,12.0,18.0,76,0.00,,,0.00,Wunderground v.1.15,2013-01-21 12:28:00,
2013-01-21 07:34:00,19.8,13.5,30.23,WNW,294,11.0,13.0,76,0.00,,,0.00,Wunderground v.1.15,2013-01-21 12:34:00,
2013-01-21 07:40:00,19.7,13.4,30.23,NW,319,10.0,17.0,76,0.00,,,0.00,Wunderground v.1.15,2013-01-21 12:40:00,
2013-01-21 07:45:00,19.6,13.0,30.23,WNW,286,11.0,15.0,75,0.00,,,0.00,Wunderground v.1.15,2013-01-21 12:45:00,
2013-01-21 07:50:00,19.5,12.9,30.23,WNW,303,13.0,15.0,75,0.00,,,0.00,Wunderground v.1.15,2013-01-21 12:50:00,
2013-01-21 07:56:00,19.6,13.3,30.23,WNW,301,11.0,13.0,76,0.00,,,0.00,Wunderground v.1.15,2013-01-21 12:56:00,
2013-01-21 08:02:00,19.6,13.3,30.23,WNW,303,10.0,10.0,76,0.00,,,0.00,Wunderground v.1.15,2013-01-21 13:02:00,
2013-01-21 08:08:00,19.7,13.7,30.23,NW,313,10.0,13.0,77,0.00,,,0.00,Wunderground v.1.15,2013-01-21 13:08:00,
2013-01-21 08:14:00,19.5,13.2,30.23,NW,322,9.0,13.0,76,0.00,,,0.00,Wunderground v.1.15,2013-01-21 13:14:00,
2013-01-21 08:20:00,19.6,13.6,30.23,NW,311,9.0,13.0,77,0.00,,,0.00,Wunderground v.1.15,2013-01-21 13:20:00,
2013-01-21 08:26:00,19.7,13.1,30.23,WNW,291,9.0,17.0,75,0.00,,,0.00,Wunderground v.1.15,2013-01-21 13:26:00,
2013-01-21 08:31:00,19.6,13.0,30.22,WNW,289,11.0,17.0,75,0.00,,,0.00,Wunderground v.1.15,2013-01-21 13:31:00,
2013-01-21 08:36:00,19.5,12.6,30.22,West,278,11.0,15.0,74,0.00,,,0.00,Wunderground v.1.15,2013-01-21 13:36:00,
2013-01-21 08:42:00,19.3,12.4,30.22,West,260,10.0,10.0,74,0.00,,,0.00,Wunderground v.1.15,2013-01-21 13:42:00,
2013-01-21 08:48:00,19.2,12.3,30.22,West,280,10.0,13.0,74,0.00,,,0.00,Wunderground v.1.15,2013-01-21 13:48:00,
2013-01-21 08:54:00,19.1,12.5,30.22,WNW,291,11.0,16.0,75,0.00,,,0.00,Wunderground v.1.15,2013-01-21 13:54:00,
2013-01-21 09:00:00,19.1,12.8,30.22,WNW,287,12.0,16.0,76,0.00,,,0.00,Wunderground v.1.15,2013-01-21 14:00:00,
2013-01-21 09:06:00,19.1,13.4,30.22,WNW,298,12.0,13.0,78,0.00,,,0.00,Wunderground v.1.15,2013-01-21 14:06:00,
2013-01-21 09:11:00,19.1,13.7,30.23,WNW,293,10.0,13.0,79,0.00,,,0.00,Wunderground v.1.15,2013-01-21 14:11:00,
2013-01-21 09:17:00,19.0,13.0,30.23,WNW,288,11.0,14.0,77,0.00,,,0.00,Wunderground v.1.15,2013-01-21 14:17:00,
2013-01-21 09:23:00,18.5,11.6,30.23,WNW,294,13.0,20.0,74,0.00,,,0.00,Wunderground v.1.15,2013-01-21 14:23:00,
2013-01-21 09:28:00,18.3,10.8,30.24,NW,318,16.0,20.0,72,0.00,,,0.00,Wunderground v.1.15,2013-01-21 14:28:00,
2013-01-21 09:33:00,18.3,11.1,30.23,WNW,285,15.0,16.0,73,0.00,,,0.00,Wunderground v.1.15,2013-01-21 14:33:00,
2013-01-21 09:39:00,18.2,11.3,30.24,NW,305,13.0,16.0,74,0.00,,,0.00,Wunderground v.1.15,2013-01-21 14:39:00,
2013-01-21 09:44:00,18.2,10.7,30.24,NW,305,12.0,22.0,72,0.00,,,0.00,Wunderground v.1.15,2013-01-21 14:44:00,
2013-01-21 09:50:00,17.9,9.8,30.24,WNW,295,14.0,22.0,70,0.00,,,0.00,Wunderground v.1.15,2013-01-21 14:50:00,
2013-01-21 09:56:00,17.8,10.3,30.24,NW,312,16.0,16.0,72,0.00,,,0.00,Wunderground v.1.15,2013-01-21 14:56:00,
2013-01-21 10:02:00,17.8,10.0,30.24,NNW,333,15.0,15.0,71,0.00,,,0.00,Wunderground v.1.15,2013-01-21 15:02:00,
2013-01-21 10:08:00,17.9,10.4,30.24,WNW,297,13.0,15.0,72,0.00,,,0.00,Wunderground v.1.15,2013-01-21 15:08:00,
2013-01-21 10:14:00,17.8,9.7,30.25,NNW,328,11.0,14.0,70,0.00,,,0.00,Wunderground v.1.15,2013-01-21 15:14:00,
2013-01-21 10:20:00,17.6,10.1,30.25,NW,309,12.0,15.0,72,0.00,,,0.00,Wunderground v.1.15,2013-01-21 15:20:00,
2013-01-21 10:26:00,17.4,10.2,30.25,WNW,293,14.0,16.0,73,0.00,,,0.00,Wunderground v.1.15,2013-01-21 15:26:00,
2013-01-21 10:32:00,17.6,10.4,30.25,WNW,303,14.0,14.0,73,0.00,,,0.00,Wunderground v.1.15,2013-01-21 15:32:00,
2013-01-21 10:38:00,17.8,8.7,30.25,West,277,13.0,19.0,67,0.00,,,0.00,Wunderground v.1.15,2013-01-21 15:38:00,
2013-01-21 10:44:00,18.2,8.1,30.25,WNW,298,17.0,22.0,64,0.00,,,0.00,Wunderground v.1.15,2013-01-21 15:44:00,
2013-01-21 10:49:00,18.4,7.5,30.25,NW,316,16.0,22.0,62,0.00,,,0.00,Wunderground v.1.15,2013-01-21 15:49:00,
2013-01-21 10:55:00,18.3,6.7,30.25,WNW,298,17.0,24.0,60,0.00,,,0.00,Wunderground v.1.15,2013-01-21 15:55:00,
2013-01-21 11:01:00,17.7,6.2,30.25,WNW,286,19.0,20.0,60,0.00,,,0.00,Wunderground v.1.15,2013-01-21 16:01:00,
2013-01-21 11:07:00,17.9,7.1,30.25,NW,318,18.0,21.0,62,0.00,,,0.00,Wunderground v.1.15,2013-01-21 16:07:00,
2013-01-21 11:13:00,18.0,7.2,30.25,NNW,332,18.0,18.0,62,0.00,,,0.00,Wunderground v.1.15,2013-01-21 16:13:00,
2013-01-21 11:19:00,17.9,6.7,30.25,NW,325,17.0,20.0,61,0.00,,,0.00,Wunderground v.1.15,2013-01-21 16:19:00,
2013-01-21 11:24:00,17.7,7.2,30.26,WNW,286,16.0,25.0,63,0.00,,,0.00,Wunderground v.1.15,2013-01-21 16:24:00,
2013-01-21 11:30:00,17.9,7.1,30.25,WNW,282,15.0,25.0,62,0.00,,,0.00,Wunderground v.1.15,2013-01-21 16:30:00,
2013-01-21 11:36:00,18.0,8.2,30.25,WSW,258,15.0,17.0,65,0.00,,,0.00,Wunderground v.1.15,2013-01-21 16:36:00,
2013-01-21 11:42:00,17.7,8.6,30.25,NNW,328,14.0,15.0,67,0.00,,,0.00,Wunderground v.1.15,2013-01-21 16:42:00,
2013-01-21 11:48:00,17.9,8.8,30.25,WNW,287,13.0,15.0,67,0.00,,,0.00,Wunderground v.1.15,2013-01-21 16:48:00,
2013-01-21 11:54:00,17.3,9.5,30.25,NW,312,13.0,20.0,71,0.00,,,0.00,Wunderground v.1.15,2013-01-21 16:54:00,
2013-01-21 12:00:00,17.1,10.2,30.25,WNW,295,15.0,20.0,74,0.00,,,0.00,Wunderground v.1.15,2013-01-21 17:00:00,
2013-01-21 12:06:00,18.0,6.8,30.25,NW,326,14.0,19.0,61,0.00,,,0.00,Wunderground v.1.15,2013-01-21 17:06:00,
2013-01-21 12:12:00,18.4,6.1,30.25,WNW,291,17.0,20.0,58,0.00,,,0.00,Wunderground v.1.15,2013-01-21 17:12:00,
2013-01-21 12:18:00,18.4,4.9,30.25,WNW,299,17.0,20.0,55,0.00,,,0.00,Wunderground v.1.15,2013-01-21 17:18:00,
2013-01-21 12:24:00,18.4,4.1,30.25,West,276,16.0,23.0,53,0.00,,,0.00,Wunderground v.1.15,2013-01-21 17:24:00,
2013-01-21 12:30:00,18.8,4.5,30.25,WNW,290,14.0,23.0,53,0.00,,,0.00,Wunderground v.1.15,2013-01-21 17:30:00,
2013-01-21 12:36:00,18.6,3.0,30.24,NW,314,17.0,22.0,50,0.00,,,0.00,Wunderground v.1.15,2013-01-21 17:36:00,
2013-01-21 12:41:00,18.2,3.9,30.25,NW,315,18.0,18.0,53,0.00,,,0.00,Wunderground v.1.15,2013-01-21 17:41:00,
2013-01-21 12:46:00,17.4,4.0,30.25,NW,306,17.0,23.0,55,0.00,,,0.00,Wunderground v.1.15,2013-01-21 17:46:00,
2013-01-21 12:52:00,17.3,3.1,30.25,WNW,296,17.0,17.0,53,0.00,,,0.00,Wunderground v.1.15,2013-01-21 17:52:00,
2013-01-21 12:57:00,17.1,3.3,30.24,WNW,293,17.0,23.0,54,0.00,,,0.00,Wunderground v.1.15,2013-01-21 17:57:00,
2013-01-21 13:03:00,18.3,5.2,30.24,WNW,285,18.0,19.0,56,0.00,,,0.00,Wunderground v.1.15,2013-01-21 18:03:00,
2013-01-21 13:08:00,18.8,4.5,30.24,NW,313,15.0,19.0,53,0.00,,,0.00,Wunderground v.1.15,2013-01-21 18:08:00,
2013-01-21 13:14:00,19.2,4.4,30.24,West,275,13.0,16.0,52,0.00,,,0.00,Wunderground v.1.15,2013-01-21 18:14:00,
2013-01-21 13:20:00,19.5,5.1,30.24,NW,311,12.0,16.0,53,0.00,,,0.00,Wunderground v.1.15,2013-01-21 18:20:00,
2013-01-21 13:26:00,19.1,3.0,30.24,WNW,301,14.0,18.0,49,0.00,,,0.00,Wunderground v.1.15,2013-01-21 18:26:00,
2013-01-21 13:32:00,19.8,3.7,30.24,NW,321,12.0,18.0,49,0.00,,,0.00,Wunderground v.1.15,2013-01-21 18:32:00,
2013-01-21 13:38:00,19.9,3.3,30.24,NW,307,13.0,18.0,48,0.00,,,0.00,Wunderground v.1.15,2013-01-21 18:38:00,
2013-01-21 13:44:00,19.3,3.2,30.24,NW,310,14.0,16.0,49,0.00,,,0.00,Wunderground v.1.15,2013-01-21 18:44:00,
2013-01-21 13:50:00,18.7,1.8,30.23,WNW,295,15.0,22.0,47,0.00,,,0.00,Wunderground v.1.15,2013-01-21 18:50:00,
2013-01-21 13:56:00,19.0,2.5,30.24,NW,304,17.0,21.0,48,0.00,,,0.00,Wunderground v.1.15,2013-01-21 18:56:00,
2013-01-21 14:02:00,19.1,2.6,30.24,WNW,302,16.0,16.0,48,0.00,,,0.00,Wunderground v.1.15,2013-01-21 19:02:00,
2013-01-21 14:07:00,19.2,1.8,30.24,NW,318,16.0,22.0,46,0.00,,,0.00,Wunderground v.1.15,2013-01-21 19:07:00,
2013-01-21 14:13:00,18.8,0.9,30.25,WNW,293,17.0,19.0,45,0.00,,,0.00,Wunderground v.1.15,2013-01-21 19:13:00,
2013-01-21 14:18:00,18.9,2.0,30.24,WNW,287,18.0,28.0,47,0.00,,,0.00,Wunderground v.1.15,2013-01-21 19:18:00,
2013-01-21 14:24:00,18.2,2.2,30.25,WNW,293,18.0,18.0,49,0.00,,,0.00,Wunderground v.1.15,2013-01-21 19:24:00,
2013-01-21 14:30:00,18.5,1.1,30.25,NW,318,17.0,26.0,46,0.00,,,0.00,Wunderground v.1.15,2013-01-21 19:30:00,
2013-01-21 14:36:00,19.1,2.1,30.25,NW,326,18.0,25.0,47,0.00,,,0.00,Wunderground v.1.15,2013-01-21 19:36:00,
2013-01-21 14:41:00,19.1,2.1,30.25,WNW,293,16.0,16.0,47,0.00,,,0.00,Wunderground v.1.15,2013-01-21 19:41:00,
2013-01-21 14:47:00,19.7,2.7,30.25,WNW,293,15.0,16.0,47,0.00,,,0.00,Wunderground v.1.15,2013-01-21 19:47:00,
2013-01-21 14:53:00,20.1,3.1,30.25,WNW,297,11.0,13.0,47,0.00,,,0.00,Wunderground v.1.15,2013-01-21 19:53:00,
2013-01-21 14:59:00,19.1,2.6,30.25,NW,308,13.0,18.0,48,0.00,,,0.00,Wunderground v.1.15,2013-01-21 19:59:00,
2013-01-21 15:05:00,18.7,1.3,30.26,West,272,17.0,25.0,46,0.00,,,0.00,Wunderground v.1.15,2013-01-21 20:05:00,
2013-01-21 15:10:00,18.8,1.4,30.25,NW,320,18.0,25.0,46,0.00,,,0.00,Wunderground v.1.15,2013-01-21 20:10:00,
2013-01-21 15:16:00,19.0,2.1,30.26,WNW,300,16.0,18.0,47,0.00,,,0.00,Wunderground v.1.15,2013-01-21 20:16:00,
2013-01-21 15:22:00,19.3,3.2,30.26,NW,318,14.0,15.0,49,0.00,,,0.00,Wunderground v.1.15,2013-01-21 20:22:00,
2013-01-21 15:28:00,17.9,1.0,30.26,NW,310,17.0,29.0,47,0.00,,,0.00,Wunderground v.1.15,2013-01-21 20:28:00,
2013-01-21 15:33:00,17.4,1.5,30.26,WNW,297,18.0,19.0,49,0.00,,,0.00,Wunderground v.1.15,2013-01-21 20:33:00,
2013-01-21 15:39:00,17.9,1.9,30.26,WNW,293,16.0,21.0,49,0.00,,,0.00,Wunderground v.1.15,2013-01-21 20:39:00,
2013-01-21 15:45:00,18.1,2.1,30.26,NW,314,15.0,18.0,49,0.00,,,0.00,Wunderground v.1.15,2013-01-21 20:45:00,
2013-01-21 15:51:00,18.2,2.2,30.26,NW,320,16.0,20.0,49,0.00,,,0.00,Wunderground v.1.15,2013-01-21 20:51:00,
2013-01-21 15:57:00,18.1,2.1,30.26,WNW,299,15.0,21.0,49,0.00,,,0.00,Wunderground v.1.15,2013-01-21 20:57:00,
2013-01-21 16:03:00,17.6,2.1,30.26,NNW,339,15.0,21.0,50,0.00,,,0.00,Wunderground v.1.15,2013-01-21 21:03:00,
2013-01-21 16:09:00,17.9,2.8,30.26,NW,319,14.0,21.0,51,0.00,,,0.00,Wunderground v.1.15,2013-01-21 21:09:00,
2013-01-21 16:15:00,17.5,2.4,30.27,WNW,289,13.0,18.0,51,0.00,,,0.00,Wunderground v.1.15,2013-01-21 21:15:00,
2013-01-21 16:20:00,17.6,2.1,30.27,NW,320,14.0,20.0,50,0.00,,,0.00,Wunderground v.1.15,2013-01-21 21:20:00,
2013-01-21 16:26:00,17.2,2.1,30.27,NW,308,14.0,20.0,51,0.00,,,0.00,Wunderground v.1.15,2013-01-21 21:26:00,
2013-01-21 16:32:00,17.3,2.2,30.27,WNW,302,13.0,16.0,51,0.00,,,0.00,Wunderground v.1.15,2013-01-21 21:32:00,
2013-01-21 16:38:00,17.1,2.1,30.28,NW,313,14.0,16.0,51,0.00,,,0.00,Wunderground v.1.15,2013-01-21 21:38:00,
2013-01-21 16:45:00,16.8,2.6,30.28,NW,316,14.0,14.0,53,0.00,,,0.00,Wunderground v.1.15,2013-01-21 21:45:00,
2013-01-21 16:50:00,16.6,2.0,30.28,NNW,332,13.0,16.0,52,0.00,,,0.00,Wunderground v.1.15,2013-01-21 21:50:00,
2013-01-21 16:55:00,16.5,2.3,30.28,NW,318,13.0,13.0,53,0.00,,,0.00,Wunderground v.1.15,2013-01-21 21:55:00,
2013-01-21 17:00:00,16.7,2.5,30.29,NNW,330,12.0,12.0,53,0.00,,,0.00,Wunderground v.1.15,2013-01-21 22:00:00,
2013-01-21 17:06:00,16.5,2.3,30.29,NW,310,11.0,13.0,53,0.00,,,0.00,Wunderground v.1.15,2013-01-21 22:06:00,
2013-01-21 17:12:00,16.4,2.2,30.29,NW,314,10.0,16.0,53,0.00,,,0.00,Wunderground v.1.15,2013-01-21 22:12:00,
2013-01-21 17:17:00,16.0,1.9,30.29,NW,310,11.0,16.0,53,0.00,,,0.00,Wunderground v.1.15,2013-01-21 22:17:00,
2013-01-21 17:23:00,15.7,2.0,30.29,WSW,256,12.0,12.0,54,0.00,,,0.00,Wunderground v.1.15,2013-01-21 22:23:00,
2013-01-21 17:28:00,15.5,1.8,30.29,NW,318,13.0,20.0,54,0.00,,,0.00,Wunderground v.1.15,2013-01-21 22:28:00,
2013-01-21 17:34:00,15.3,2.0,30.29,North,359,13.0,23.0,55,0.00,,,0.00,Wunderground v.1.15,2013-01-21 22:34:00,
2013-01-21 17:40:00,15.0,2.1,30.30,WNW,285,12.0,23.0,56,0.00,,,0.00,Wunderground v.1.15,2013-01-21 22:40:00,
2013-01-21 17:45:00,15.0,2.1,30.30,NW,305,12.0,23.0,56,0.00,,,0.00,Wunderground v.1.15,2013-01-21 22:45:00,
2013-01-21 17:51:00,15.0,2.1,30.30,NW,310,11.0,23.0,56,0.00,,,0.00,Wunderground v.1.15,2013-01-21 22:51:00,
2013-01-21 17:57:00,14.9,2.0,30.30,NW,309,11.0,23.0,56,0.00,,,0.00,Wunderground v.1.15,2013-01-21 22:57:00,
2013-01-21 18:03:00,14.7,1.0,30.29,NW,315,12.0,23.0,54,0.00,,,0.00,Wunderground v.1.15,2013-01-21 23:03:00,
2013-01-21 18:09:00,14.6,1.3,30.30,WNW,290,12.0,23.0,55,0.00,,,0.00,Wunderground v.1.15,2013-01-21 23:09:00,
2013-01-21 18:14:00,14.6,0.9,30.30,WNW,292,12.0,23.0,54,0.00,,,0.00,Wunderground v.1.15,2013-01-21 23:14:00,
2013-01-21 18:20:00,14.5,0.5,30.30,WNW,288,11.0,23.0,53,0.00,,,0.00,Wunderground v.1.15,2013-01-21 23:20:00,
2013-01-21 18:26:00,14.5,0.5,30.30,NW,305,11.0,23.0,53,0.00,,,0.00,Wunderground v.1.15,2013-01-21 23:26:00,
2013-01-21 18:32:00,14.3,1.1,30.30,WNW,302,10.0,10.0,55,0.00,,,0.00,Wunderground v.1.15,2013-01-21 23:32:00,
2013-01-21 18:38:00,14.3,0.7,30.30,NW,315,9.0,23.0,54,0.00,,,0.00,Wunderground v.1.15,2013-01-21 23:38:00,
2013-01-21 18:44:00,14.1,0.9,30.30,WNW,289,8.0,23.0,55,0.00,,,0.00,Wunderground v.1.15,2013-01-21 23:44:00,
2013-01-21 18:50:00,14.3,1.1,30.31,WNW,293,9.0,23.0,55,0.00,,,0.00,Wunderground v.1.15,2013-01-21 23:50:00,
2013-01-21 18:56:00,14.0,1.2,30.31,WNW,297,9.0,23.0,56,0.00,,,0.00,Wunderground v.1.15,2013-01-21 23:56:00,
2013-01-21 19:02:00,14.0,1.2,30.31,WNW,293,8.0,23.0,56,0.00,,,0.00,Wunderground v.1.15,2013-01-22 00:02:00,
2013-01-21 19:08:00,13.9,1.1,30.31,WNW,293,8.0,23.0,56,0.00,,,0.00,Wunderground v.1.15,2013-01-22 00:08:00,
2013-01-21 19:14:00,13.9,0.7,30.31,NW,322,10.0,14.0,55,0.00,,,0.00,Wunderground v.1.15,2013-01-22 00:14:00,
2013-01-21 19:20:00,13.8,0.6,30.32,WNW,300,10.0,23.0,55,0.00,,,0.00,Wunderground v.1.15,2013-01-22 00:20:00,
2013-01-21 19:26:00,13.9,-0.1,30.31,NW,305,11.0,23.0,53,0.00,,,0.00,Wunderground v.1.15,2013-01-22 00:26:00,
2013-01-21 19:32:00,13.7,-0.3,30.32,NW,305,11.0,23.0,53,0.00,,,0.00,Wunderground v.1.15,2013-01-22 00:32:00,
2013-01-21 19:37:00,13.7,-0.3,30.32,NW,317,11.0,23.0,53,0.00,,,0.00,Wunderground v.1.15,2013-01-22 00:37:00,
2013-01-21 19:43:00,13.6,-0.4,30.32,NW,313,10.0,23.0,53,0.00,,,0.00,Wunderground v.1.15,2013-01-22 00:43:00,
2013-01-21 19:49:00,13.5,-0.5,30.32,WNW,295,10.0,23.0,53,0.00,,,0.00,Wunderground v.1.15,2013-01-22 00:49:00,
2013-01-21 19:55:00,13.4,-0.2,30.33,NW,319,9.0,23.0,54,0.00,,,0.00,Wunderground v.1.15,2013-01-22 00:55:00,
2013-01-21 20:01:00,13.2,-0.4,30.32,WNW,291,8.0,23.0,54,0.00,,,0.00,Wunderground v.1.15,2013-01-22 01:01:00,
2013-01-21 20:07:00,13.0,-0.2,30.33,WSW,258,7.0,23.0,55,0.00,,,0.00,Wunderground v.1.15,2013-01-22 01:07:00,
2013-01-21 20:13:00,13.1,0.3,30.33,WNW,293,8.0,23.0,56,0.00,,,0.00,Wunderground v.1.15,2013-01-22 01:13:00,
2013-01-21 20:19:00,13.0,0.2,30.33,WNW,289,7.0,23.0,56,0.00,,,0.00,Wunderground v.1.15,2013-01-22 01:19:00,
2013-01-21 20:25:00,13.0,-0.2,30.32,WNW,289,7.0,23.0,55,0.00,,,0.00,Wunderground v.1.15,2013-01-22 01:25:00,
2013-01-21 20:31:00,12.8,0.0,30.33,WNW,299,7.0,23.0,56,0.00,,,0.00,Wunderground v.1.15,2013-01-22 01:31:00,
2013-01-21 20:37:00,12.7,0.7,30.33,WNW,293,7.0,23.0,58,0.00,,,0.00,Wunderground v.1.15,2013-01-22 01:37:00,
2013-01-21 20:43:00,12.6,0.6,30.33,WNW,291,6.0,23.0,58,0.00,,,0.00,Wunderground v.1.15,2013-01-22 01:43:00,
2013-01-21 20:49:00,12.8,0.0,30.33,WNW,283,8.0,23.0,56,0.00,,,0.00,Wunderground v.1.15,2013-01-22 01:49:00,
2013-01-21 20:54:00,12.8,0.8,30.33,NW,310,8.0,23.0,58,0.00,,,0.00,Wunderground v.1.15,2013-01-22 01:54:00,
2013-01-21 21:00:00,12.8,0.4,30.33,WNW,300,8.0,23.0,57,0.00,,,0.00,Wunderground v.1.15,2013-01-22 02:00:00,
2013-01-21 21:06:00,12.7,0.7,30.34,WNW,288,8.0,23.0,58,0.00,,,0.00,Wunderground v.1.15,2013-01-22 02:06:00,
2013-01-21 21:12:00,12.8,0.4,30.34,WNW,293,8.0,23.0,57,0.00,,,0.00,Wunderground v.1.15,2013-01-22 02:12:00,
2013-01-21 21:18:00,12.9,0.5,30.34,WNW,299,8.0,23.0,57,0.00,,,0.00,Wunderground v.1.15,2013-01-22 02:18:00,
2013-01-21 21:24:00,13.0,0.6,30.34,WNW,291,8.0,23.0,57,0.00,,,0.00,Wunderground v.1.15,2013-01-22 02:24:00,
2013-01-21 21:30:00,13.1,0.3,30.34,WNW,287,9.0,23.0,56,0.00,,,0.00,Wunderground v.1.15,2013-01-22 02:30:00,
2013-01-21 21:35:00,13.2,0.4,30.34,WNW,287,12.0,23.0,56,0.00,,,0.00,Wunderground v.1.15,2013-01-22 02:35:00,
2013-01-21 21:41:00,13.2,0.4,30.34,WNW,300,12.0,23.0,56,0.00,,,0.00,Wunderground v.1.15,2013-01-22 02:41:00,
2013-01-21 21:47:00,13.1,-0.1,30.34,NW,319,13.0,23.0,55,0.00,,,0.00,Wunderground v.1.15,2013-01-22 02:47:00,
2013-01-21 21:53:00,13.2,0.4,30.35,WNW,287,12.0,12.0,56,0.00,,,0.00,Wunderground v.1.15,2013-01-22 02:53:00,
2013-01-21 21:58:00,13.1,0.3,30.35,NW,315,11.0,23.0,56,0.00,,,0.00,Wunderground v.1.15,2013-01-22 02:58:00,
2013-01-21 22:04:00,13.2,0.8,30.35,WNW,303,10.0,23.0,57,0.00,,,0.00,Wunderground v.1.15,2013-01-22 03:04:00,
2013-01-21 22:10:00,13.1,0.7,30.34,NW,310,9.0,23.0,57,0.00,,,0.00,Wunderground v.1.15,2013-01-22 03:10:00,
2013-01-21 22:16:00,13.0,0.2,30.35,WNW,303,11.0,23.0,56,0.00,,,0.00,Wunderground v.1.15,2013-01-22 03:16:00,
2013-01-21 22:22:00,13.1,0.3,30.34,WNW,289,13.0,13.0,56,0.00,,,0.00,Wunderground v.1.15,2013-01-22 03:22:00,
2013-01-21 22:28:00,13.1,0.7,30.34,WNW,292,12.0,23.0,57,0.00,,,0.00,Wunderground v.1.15,2013-01-22 03:28:00,
2013-01-21 22:33:00,13.0,0.6,30.34,NW,312,10.0,23.0,57,0.00,,,0.00,Wunderground v.1.15,2013-01-22 03:33:00,
2013-01-21 22:39:00,13.0,0.2,30.34,WNW,289,12.0,23.0,56,0.00,,,0.00,Wunderground v.1.15,2013-01-22 03:39:00,
2013-01-21 22:45:00,12.9,0.5,30.34,NW,310,11.0,23.0,57,0.00,,,0.00,Wunderground v.1.15,2013-01-22 03:45:00,
2013-01-21 22:51:00,12.8,-0.3,30.34,WNW,291,11.0,23.0,55,0.00,,,0.00,Wunderground v.1.15,2013-01-22 03:51:00,
2013-01-21 22:57:00,12.8,-0.3,30.34,West,276,14.0,23.0,55,0.00,,,0.00,Wunderground v.1.15,2013-01-22 03:57:00,
2013-01-21 23:03:00,12.6,-0.2,30.35,WNW,289,11.0,23.0,56,0.00,,,0.00,Wunderground v.1.15,2013-01-22 04:03:00,
2013-01-21 23:09:00,12.4,-0.3,30.35,WNW,297,10.0,23.0,56,0.00,,,0.00,Wunderground v.1.15,2013-01-22 04:09:00,
2013-01-21 23:15:00,12.3,-0.4,30.35,WNW,297,9.0,23.0,56,0.00,,,0.00,Wunderground v.1.15,2013-01-22 04:15:00,
2013-01-21 23:21:00,12.2,-0.5,30.35,WNW,297,9.0,23.0,56,0.00,,,0.00,Wunderground v.1.15,2013-01-22 04:21:00,
2013-01-21 23:27:00,12.2,-0.1,30.35,WNW,289,10.0,23.0,57,0.00,,,0.00,Wunderground v.1.15,2013-01-22 04:27:00,
2013-01-21 23:33:00,12.0,-0.3,30.35,NW,326,10.0,23.0,57,0.00,,,0.00,Wunderground v.1.15,2013-01-22 04:33:00,
2013-01-21 23:37:00,11.9,-0.4,30.35,NW,309,9.0,23.0,57,0.00,,,0.00,Wunderground v.1.15,2013-01-22 04:37:00,
2013-01-21 23:43:00,11.9,-0.4,30.35,WNW,297,9.0,23.0,57,0.00,,,0.00,Wunderground v.1.15,2013-01-22 04:43:00,
2013-01-21 23:49:00,11.8,-0.5,30.36,WNW,299,9.0,23.0,57,0.00,,,0.00,Wunderground v.1.15,2013-01-22 04:49:00,
2013-01-21 23:55:00,11.8,-0.5,30.36,NW,316,9.0,23.0,57,0.00,,,0.00,Wunderground v.1.15,2013-01-22 04:55:00,